Time;durP1;ratioP1;P1;durP2;ratioP2;P2;SDS_P1;SDS_P2;PMS_P1;PMS_P2;Temp;Humidity;BMP_temperature;BMP_pressure;BME280_temperature;BME280_humidity;BME280_pressure;Samples;Min_cycle;Max_cycle;Signal;HPM_P1;HPM_P2
2022/09/06 00:00:40;;;;;;;5.32;2.50;;;;;;;19.24;70.52;101473.69;5045563;28;20031;-75
2022/09/06 00:03:07;;;;;;;4.18;2.70;;;;;;;19.22;70.72;101466.75;5039195;28;20029;-75
2022/09/06 00:05:32;;;;;;;3.55;2.38;;;;;;;19.19;70.73;101459.88;5039017;28;20461;-75
2022/09/06 00:07:59;;;;;;;3.63;2.60;;;;;;;19.13;70.23;101449.63;5047594;28;20469;-76
2022/09/06 00:10:24;;;;;;;3.65;2.50;;;;;;;19.10;70.64;101449.81;5047954;28;20474;-75
2022/09/06 00:12:50;;;;;;;5.38;2.90;;;;;;;19.06;71.22;101464.94;5048571;28;20036;-75
2022/09/06 00:15:15;;;;;;;4.72;2.72;;;;;;;19.04;70.82;101471.22;5051476;28;20021;-75
2022/09/06 00:17:43;;;;;;;4.50;2.83;;;;;;;19.04;71.26;101480.00;5049354;28;20036;-76
2022/09/06 00:20:09;;;;;;;4.47;2.65;;;;;;;19.05;71.79;101483.47;5051660;28;20376;-76
2022/09/06 00:22:35;;;;;;;4.47;2.78;;;;;;;19.04;71.90;101493.19;5049351;28;20020;-75
2022/09/06 00:25:00;;;;;;;4.45;2.58;;;;;;;19.04;70.76;101509.00;5051354;28;20104;-75
2022/09/06 00:27:27;;;;;;;2.90;2.13;;;;;;;19.04;71.18;101524.84;5048487;28;20435;-76
2022/09/06 00:29:52;;;;;;;2.92;2.30;;;;;;;19.04;71.42;101553.84;5047980;28;20075;-76
2022/09/06 00:32:18;;;;;;;5.40;2.72;;;;;;;19.04;71.66;101603.06;5048004;28;20045;-76
2022/09/06 00:34:43;;;;;;;6.13;2.70;;;;;;;19.01;71.43;101616.41;5048230;28;20047;-75
2022/09/06 00:37:08;;;;;;;4.47;2.72;;;;;;;18.89;72.04;101604.66;5049164;28;20024;-76
2022/09/06 00:39:34;;;;;;;4.45;2.83;;;;;;;18.83;72.31;101626.88;5050446;28;20415;-76
2022/09/06 00:41:59;;;;;;;3.65;2.40;;;;;;;18.78;72.20;101629.75;5049338;28;20029;-76
2022/09/06 00:44:24;;;;;;;4.55;2.50;;;;;;;18.69;73.17;101605.63;5049349;28;20468;-75
2022/09/06 00:46:51;;;;;;;5.03;2.38;;;;;;;18.67;74.03;101595.16;5048931;28;20021;-75
2022/09/06 00:49:31;;;;;;;2.95;2.38;;;;;;;18.69;73.59;101601.22;5050631;28;20024;-75
2022/09/06 00:52:02;;;;;;;3.63;2.30;;;;;;;18.70;73.99;101599.41;5049419;28;20103;-75
2022/09/06 00:54:28;;;;;;;3.42;2.40;;;;;;;18.71;74.38;101603.75;5046872;28;20021;-75
2022/09/06 00:56:55;;;;;;;3.15;2.58;;;;;;;18.71;74.51;101611.66;5045570;28;20445;-75
2022/09/06 00:59:20;;;;;;;3.88;2.50;;;;;;;18.71;74.80;101609.88;5049416;28;20468;-75
2022/09/06 01:01:46;;;;;;;4.88;2.35;;;;;;;18.73;75.45;101599.28;5048597;28;20033;-75
2022/09/06 01:04:12;;;;;;;3.25;2.33;;;;;;;18.71;75.74;101599.34;5049316;28;20033;-75
2022/09/06 01:07:09;;;;;;;5.60;2.72;;;;;;;18.70;75.23;101602.06;5049083;28;20033;-75
2022/09/06 01:09:46;;;;;;;3.40;2.42;;;;;;;18.71;76.23;101590.59;5036578;28;20496;-75
2022/09/06 01:12:23;;;;;;;3.92;2.70;;;;;;;18.68;75.38;101580.19;5049093;28;20032;-75
2022/09/06 01:15:00;;;;;;;3.13;2.50;;;;;;;18.63;75.70;101573.34;5049961;28;20025;-75
2022/09/06 01:17:35;;;;;;;3.97;2.72;;;;;;;18.62;76.28;101570.81;5046109;28;20029;-75
2022/09/06 01:20:17;;;;;;;4.30;2.97;;;;;;;18.60;76.53;101568.25;5047121;28;20190;-75
2022/09/06 01:23:03;;;;;;;3.33;2.50;;;;;;;18.59;77.24;101568.31;5039620;28;20021;-75
2022/09/06 01:26:06;;;;;;;4.75;2.78;;;;;;;18.54;75.82;101552.72;5036815;28;20078;-75
2022/09/06 01:28:45;;;;;;;4.60;2.70;;;;;;;18.46;75.98;101550.47;5031642;28;20226;-75
2022/09/06 01:31:30;;;;;;;5.22;2.70;;;;;;;18.43;75.93;101544.50;5037112;28;20077;-75
2022/09/06 01:34:05;;;;;;;4.68;3.13;;;;;;;18.40;76.12;101536.72;5045496;28;20020;-75
2022/09/06 01:36:45;;;;;;;4.95;3.03;;;;;;;18.38;76.58;101536.78;5039542;28;20033;-75
2022/09/06 01:39:27;;;;;;;4.22;3.10;;;;;;;18.38;76.11;101514.88;5044679;28;20063;-75
2022/09/06 01:41:55;;;;;;;3.97;2.95;;;;;;;18.33;77.34;101496.66;5043399;28;20052;-75
2022/09/06 01:44:21;;;;;;;4.72;3.25;;;;;;;18.30;77.74;101486.25;5038657;28;20021;-75
2022/09/06 01:47:11;;;;;;;5.28;3.35;;;;;;;18.22;76.22;101468.19;5036491;28;20460;-75
2022/09/06 01:49:39;;;;;;;4.65;3.00;;;;;;;18.16;77.36;101469.34;5038731;28;20033;-75
2022/09/06 01:52:16;;;;;;;9.55;3.17;;;;;;;18.14;77.57;101450.13;5042281;28;20029;-75
2022/09/06 01:54:50;;;;;;;4.00;3.28;;;;;;;18.14;77.52;101438.72;5041153;28;20055;-75
2022/09/06 01:57:48;;;;;;;4.15;3.28;;;;;;;18.15;76.05;101424.63;5043935;28;20028;-75
2022/09/06 02:00:19;;;;;;;5.20;3.38;;;;;;;18.13;78.18;101414.19;5029642;28;20044;-75
2022/09/06 02:03:07;;;;;;;5.03;3.60;;;;;;;18.13;78.40;101405.41;5038913;28;20068;-76
2022/09/06 02:05:47;;;;;;;5.32;3.22;;;;;;;18.15;76.89;101385.13;5044463;28;20033;-75
2022/09/06 02:08:19;;;;;;;4.95;3.40;;;;;;;18.16;78.15;101378.94;5042287;28;20064;-75
2022/09/06 02:10:53;;;;;;;5.03;3.40;;;;;;;18.14;78.19;101368.50;5053414;28;20025;-75
2022/09/06 02:13:23;;;;;;;3.63;2.95;;;;;;;18.14;78.38;101359.72;5049143;28;20495;-75
2022/09/06 02:16:00;;;;;;;3.95;3.13;;;;;;;18.11;78.02;101350.22;5043014;28;20036;-75
2022/09/06 02:18:33;;;;;;;5.25;3.05;;;;;;;18.08;78.03;101346.88;5044902;28;20025;-75
2022/09/06 02:21:02;;;;;;;4.65;3.00;;;;;;;18.05;78.50;101340.84;5041639;28;20021;-75
2022/09/06 02:23:32;;;;;;;4.90;2.97;;;;;;;18.04;78.28;101339.13;5041395;28;20041;-75
2022/09/06 02:26:09;;;;;;;3.80;3.37;;;;;;;18.04;78.62;101341.75;5041338;28;20409;-75
2022/09/06 02:28:35;;;;;;;3.75;3.15;;;;;;;18.03;78.49;101320.75;5041620;28;20033;-75
2022/09/06 02:31:08;;;;;;;6.72;3.10;;;;;;;18.00;78.06;101320.94;5040943;28;20099;-75
2022/09/06 02:33:34;;;;;;;4.97;3.45;;;;;;;17.99;78.27;101335.88;5040129;28;20048;-75
2022/09/06 02:36:06;;;;;;;4.28;3.30;;;;;;;17.97;78.05;101331.59;5040792;28;20033;-75
2022/09/06 02:38:35;;;;;;;6.22;3.47;;;;;;;18.01;78.44;101348.97;5036297;28;20061;-75
2022/09/06 02:41:03;;;;;;;4.47;3.45;;;;;;;18.02;77.99;101374.34;5037045;28;20033;-75
2022/09/06 02:43:29;;;;;;;5.40;3.63;;;;;;;18.02;77.83;101388.38;5040752;28;20037;-75
2022/09/06 02:45:54;;;;;;;4.63;3.65;;;;;;;18.04;77.85;101391.78;5037194;28;20033;-75
2022/09/06 02:48:19;;;;;;;5.13;3.83;;;;;;;18.04;78.08;101394.41;5039667;28;20029;-76
2022/09/06 02:50:45;;;;;;;4.60;3.63;;;;;;;18.05;78.04;101398.75;5038248;28;20021;-75
2022/09/06 02:53:12;;;;;;;5.55;3.58;;;;;;;18.04;78.30;101397.06;5043126;28;20386;-75
2022/09/06 02:55:38;;;;;;;6.30;3.50;;;;;;;18.05;77.80;101390.00;5040241;28;20462;-75
2022/09/06 02:58:05;;;;;;;6.70;3.65;;;;;;;18.01;77.39;101402.47;5039483;28;20117;-75
2022/09/06 03:00:31;;;;;;;5.00;3.50;;;;;;;17.95;77.68;101392.19;5039839;28;20037;-75
2022/09/06 03:02:56;;;;;;;5.03;3.50;;;;;;;17.95;77.94;101392.19;5038921;28;20377;-76
2022/09/06 03:05:23;;;;;;;4.70;3.60;;;;;;;17.96;78.39;101391.25;5039502;28;20035;-75
2022/09/06 03:07:48;;;;;;;4.50;3.65;;;;;;;17.96;78.53;101387.78;5039421;28;20029;-75
2022/09/06 03:10:14;;;;;;;5.25;3.42;;;;;;;17.91;78.65;101393.28;5042165;28;20317;-75
2022/09/06 03:12:42;;;;;;;6.75;3.80;;;;;;;17.92;78.70;101402.88;5042245;28;20029;-75
2022/09/06 03:15:08;;;;;;;6.88;4.20;;;;;;;17.89;78.43;101382.81;5036800;28;20373;-75
2022/09/06 03:17:33;;;;;;;4.57;3.70;;;;;;;17.88;78.38;101398.69;5041977;28;20037;-75
2022/09/06 03:19:58;;;;;;;5.05;3.35;;;;;;;17.83;77.94;101387.50;5038890;28;20033;-75
2022/09/06 03:22:23;;;;;;;4.32;3.47;;;;;;;17.85;78.54;101390.94;5038524;28;20078;-75
2022/09/06 03:24:49;;;;;;;5.50;3.58;;;;;;;17.83;79.14;101385.75;5041254;28;20098;-75
2022/09/06 03:27:14;;;;;;;5.18;3.55;;;;;;;17.83;78.79;101393.66;5037981;28;20096;-75
2022/09/06 03:29:39;;;;;;;4.72;3.67;;;;;;;17.82;79.01;101391.94;5040437;28;20491;-75
2022/09/06 03:32:04;;;;;;;5.95;4.00;;;;;;;17.80;78.95;101392.91;5042384;28;20041;-75
2022/09/06 03:34:30;;;;;;;4.78;3.80;;;;;;;17.79;79.21;101385.94;5040166;28;20042;-75
2022/09/06 03:36:55;;;;;;;5.20;4.00;;;;;;;17.78;79.30;101384.25;5038230;28;20033;-75
2022/09/06 03:39:20;;;;;;;5.95;4.15;;;;;;;17.77;79.19;101378.13;5038191;28;20036;-75
2022/09/06 03:41:45;;;;;;;4.60;3.50;;;;;;;17.75;79.27;101375.59;5036469;28;20070;-75
2022/09/06 03:44:11;;;;;;;4.72;3.72;;;;;;;17.72;79.42;101378.38;5037132;28;20033;-75
2022/09/06 03:46:36;;;;;;;5.25;4.25;;;;;;;17.69;79.28;101370.59;5038563;28;20029;-75
2022/09/06 03:49:02;;;;;;;5.13;3.90;;;;;;;17.67;79.43;101372.47;5042769;28;20033;-75
2022/09/06 03:51:27;;;;;;;5.60;4.10;;;;;;;17.64;79.54;101379.66;5039278;28;20533;-75
2022/09/06 03:53:53;;;;;;;5.32;4.05;;;;;;;17.62;78.74;101384.97;5035831;28;20053;-75
2022/09/06 03:56:18;;;;;;;5.28;3.70;;;;;;;17.56;78.59;101380.00;5040207;28;20024;-75
2022/09/06 03:58:44;;;;;;;6.22;3.78;;;;;;;17.53;78.92;101382.78;5038488;28;20055;-75
2022/09/06 04:01:10;;;;;;;6.10;3.65;;;;;;;17.49;78.79;101389.09;5037013;28;20043;-75
2022/09/06 04:03:37;;;;;;;5.85;3.97;;;;;;;17.45;79.27;101383.97;5040208;28;20736;-75
2022/09/06 04:06:04;;;;;;;5.07;4.00;;;;;;;17.43;79.36;101395.50;5036509;28;20122;-75
2022/09/06 04:08:29;;;;;;;6.05;4.18;;;;;;;17.40;79.19;101395.63;5021727;28;20587;-75
2022/09/06 04:10:56;;;;;;;5.97;4.03;;;;;;;17.36;79.25;101399.31;5039141;28;20059;-75
2022/09/06 04:13:23;;;;;;;6.30;4.15;;;;;;;17.33;79.50;101389.81;5040397;28;20035;-75
2022/09/06 04:15:49;;;;;;;5.22;4.32;;;;;;;17.33;79.74;101395.06;5039286;28;20171;-75
2022/09/06 04:18:15;;;;;;;7.93;4.18;;;;;;;17.32;79.48;101395.97;5040318;28;20213;-75
2022/09/06 04:20:40;;;;;;;5.82;3.90;;;;;;;17.28;79.54;101394.41;5039016;28;20198;-75
2022/09/06 04:23:06;;;;;;;5.97;4.20;;;;;;;17.23;79.07;101394.63;5042729;28;20021;-75
2022/09/06 04:25:31;;;;;;;5.07;4.00;;;;;;;17.20;79.30;101394.75;5038053;28;20194;-75
2022/09/06 04:27:56;;;;;;;5.65;4.28;;;;;;;17.18;79.50;101387.88;5040099;28;20028;-75
2022/09/06 04:30:22;;;;;;;5.45;3.70;;;;;;;17.14;79.02;101392.41;5040749;28;20324;-76
2022/09/06 04:32:47;;;;;;;5.82;4.22;;;;;;;17.08;79.28;101396.16;5038767;28;20057;-75
2022/09/06 04:35:12;;;;;;;4.65;3.50;;;;;;;17.00;78.18;101403.53;5034748;28;20040;-75
2022/09/06 04:37:38;;;;;;;4.78;3.70;;;;;;;16.91;78.16;101404.75;5036894;28;21095;-75
2022/09/06 04:40:03;;;;;;;10.38;4.47;;;;;;;16.88;79.30;101398.78;5035555;28;20025;-75
2022/09/06 04:42:29;;;;;;;6.53;4.50;;;;;;;16.86;79.78;101411.16;5038091;28;20025;-75
2022/09/06 04:44:54;;;;;;;8.15;4.82;;;;;;;16.84;80.01;101409.44;5035629;28;20096;-75
2022/09/06 04:47:19;;;;;;;9.65;4.57;;;;;;;16.81;79.80;101401.69;5036577;28;20026;-75
2022/09/06 04:49:47;;;;;;;5.93;4.55;;;;;;;16.83;80.03;101402.47;5038976;28;20071;-75
2022/09/06 04:52:12;;;;;;;7.13;4.78;;;;;;;16.79;80.39;101403.50;5045729;28;20385;-75
2022/09/06 04:54:37;;;;;;;6.72;4.95;;;;;;;16.79;80.26;101408.75;5037644;28;20507;-75
2022/09/06 04:57:03;;;;;;;5.25;4.13;;;;;;;16.78;79.94;101399.19;5039181;28;20495;-75
2022/09/06 04:59:28;;;;;;;6.00;3.90;;;;;;;16.75;79.05;101399.31;5038123;28;20037;-75
2022/09/06 05:01:53;;;;;;;7.75;4.45;;;;;;;16.74;79.75;101402.84;5043065;28;20031;-75
2022/09/06 05:04:19;;;;;;;5.75;4.13;;;;;;;16.70;79.75;101417.06;5038937;28;21660;-75
2022/09/06 05:06:44;;;;;;;6.43;5.03;;;;;;;16.69;80.01;101415.34;5039808;28;20020;-75
2022/09/06 05:09:09;;;;;;;10.95;4.85;;;;;;;16.71;79.79;101418.75;5041429;28;20021;-75
2022/09/06 05:11:35;;;;;;;6.32;4.47;;;;;;;16.69;79.46;101425.84;5037794;28;20025;-75
2022/09/06 05:14:00;;;;;;;8.00;4.40;;;;;;;16.65;79.48;101425.09;5043943;28;20060;-75
2022/09/06 05:16:26;;;;;;;9.07;4.72;;;;;;;16.65;79.63;101426.91;5040571;28;20464;-75
2022/09/06 05:18:51;;;;;;;6.32;4.95;;;;;;;16.63;79.27;101431.34;5041014;28;21660;-75
2022/09/06 05:21:17;;;;;;;10.45;5.00;;;;;;;16.61;79.38;101423.56;5041314;28;20361;-75
2022/09/06 05:23:42;;;;;;;10.65;4.85;;;;;;;16.58;79.44;101428.94;5040913;28;20049;-75
2022/09/06 05:26:07;;;;;;;6.35;4.80;;;;;;;16.57;79.63;101432.47;5040795;28;20029;-75
2022/09/06 05:28:33;;;;;;;5.88;4.93;;;;;;;16.57;79.57;101423.75;5039693;28;20025;-75
2022/09/06 05:31:11;;;;;;;6.30;4.72;;;;;;;16.57;79.49;101423.75;5041376;28;20049;-75
2022/09/06 05:33:37;;;;;;;7.30;4.45;;;;;;;16.56;79.40;101425.50;5040837;28;20017;-75
2022/09/06 05:36:05;;;;;;;8.80;5.28;;;;;;;16.56;79.80;101427.28;5040563;28;20037;-75
2022/09/06 05:38:31;;;;;;;6.35;4.43;;;;;;;16.55;79.90;101431.69;5040220;28;20044;-75
2022/09/06 05:40:56;;;;;;;6.95;4.45;;;;;;;16.58;80.27;101428.94;5044905;28;20034;-75
2022/09/06 05:43:21;;;;;;;7.95;4.88;;;;;;;16.60;79.95;101426.22;5036048;28;20075;-75
2022/09/06 05:45:47;;;;;;;7.57;5.10;;;;;;;16.61;80.01;101433.19;5039181;28;20464;-75
2022/09/06 05:48:12;;;;;;;7.05;5.20;;;;;;;16.62;80.01;101438.41;5043494;28;20086;-75
2022/09/06 05:50:37;;;;;;;8.15;5.63;;;;;;;16.64;80.27;101427.81;5044512;28;20078;-75
2022/09/06 05:53:03;;;;;;;7.70;6.03;;;;;;;16.66;80.20;101429.44;5042745;28;20029;-75
2022/09/06 05:55:28;;;;;;;6.72;5.45;;;;;;;16.68;80.06;101434.66;5037952;28;20456;-75
2022/09/06 05:57:53;;;;;;;7.28;5.18;;;;;;;16.68;79.76;101429.41;5041106;28;20041;-75
2022/09/06 06:00:19;;;;;;;10.40;5.10;;;;;;;16.72;80.13;101430.13;5042094;28;20025;-75
2022/09/06 06:02:48;;;;;;;7.10;5.53;;;;;;;16.73;80.02;101432.69;5045445;28;20025;-75
2022/09/06 06:05:14;;;;;;;8.38;5.82;;;;;;;16.76;80.48;101437.78;5040301;28;20087;-75
2022/09/06 06:07:39;;;;;;;7.22;5.53;;;;;;;16.80;80.47;101434.13;5044716;28;20031;-75
2022/09/06 06:10:05;;;;;;;7.50;5.50;;;;;;;16.86;80.70;101442.69;5051251;28;20175;-75
2022/09/06 06:12:30;;;;;;;8.30;5.90;;;;;;;16.90;80.41;101434.59;5049772;28;20037;-75
2022/09/06 06:14:55;;;;;;;8.48;6.22;;;;;;;16.92;81.31;101435.38;5050717;28;20428;-75
2022/09/06 06:17:21;;;;;;;9.80;6.43;;;;;;;16.96;81.21;101428.25;5052094;28;20033;-75
2022/09/06 06:19:46;;;;;;;7.75;6.05;;;;;;;17.02;81.19;101427.13;5052151;28;20452;-75
2022/09/06 06:22:11;;;;;;;11.20;6.75;;;;;;;17.05;81.53;101438.38;5051911;28;20035;-75
2022/09/06 06:24:37;;;;;;;8.98;6.68;;;;;;;17.11;81.53;101432.00;5047060;28;20021;-75
2022/09/06 06:27:02;;;;;;;8.15;6.55;;;;;;;17.18;81.47;101443.09;5047966;28;20017;-75
2022/09/06 06:29:27;;;;;;;11.25;7.13;;;;;;;17.22;81.67;101448.13;5046298;28;20029;-75
2022/09/06 06:31:52;;;;;;;8.25;6.95;;;;;;;17.31;81.84;101438.97;5047729;28;20052;-75
2022/09/06 06:34:20;;;;;;;9.57;6.78;;;;;;;17.37;81.74;101446.63;5047219;28;20021;-75
2022/09/06 06:36:46;;;;;;;10.02;6.88;;;;;;;17.44;81.90;101434.88;5056663;28;20029;-75
2022/09/06 06:39:11;;;;;;;8.95;7.03;;;;;;;17.52;81.27;101438.94;5046507;28;20106;-75
2022/09/06 06:41:37;;;;;;;8.75;6.40;;;;;;;17.57;81.23;101431.72;5044607;28;20033;-75
2022/09/06 06:44:04;;;;;;;7.78;6.22;;;;;;;17.64;81.08;101429.66;5041562;28;20033;-75
2022/09/06 06:46:35;;;;;;;7.25;5.75;;;;;;;17.70;80.69;101427.56;5044314;28;20032;-75
2022/09/06 06:49:01;;;;;;;6.95;5.18;;;;;;;17.78;80.24;101426.34;5041931;28;20066;-75
2022/09/06 06:51:29;;;;;;;8.45;5.65;;;;;;;17.84;79.72;101420.81;5040914;28;20032;-75
2022/09/06 06:53:58;;;;;;;9.00;6.15;;;;;;;17.90;79.58;101431.06;5040836;28;20021;-75
2022/09/06 06:56:35;;;;;;;8.05;6.72;;;;;;;17.96;79.37;101427.28;5040950;28;20120;-75
2022/09/06 06:59:03;;;;;;;10.68;6.50;;;;;;;17.99;79.55;101427.16;5039662;28;20025;-75
2022/09/06 07:01:30;;;;;;;7.70;6.90;;;;;;;18.05;79.72;101427.72;5045200;28;20036;-75
2022/09/06 07:03:55;;;;;;;7.30;6.22;;;;;;;18.10;79.79;101416.97;5044918;28;20070;-75
2022/09/06 07:06:21;;;;;;;8.73;7.13;;;;;;;18.15;79.05;101419.38;5045958;28;20112;-75
2022/09/06 07:08:48;;;;;;;9.60;7.43;;;;;;;18.23;78.81;101433.03;5040790;28;20062;-76
2022/09/06 07:11:15;;;;;;;9.98;7.53;;;;;;;18.27;78.50;101428.47;5035671;28;20485;-76
2022/09/06 07:13:40;;;;;;;11.15;7.07;;;;;;;18.33;78.49;101418.47;5041778;28;20029;-76
2022/09/06 07:16:20;;;;;;;8.88;6.85;;;;;;;18.40;78.21;101412.91;5035567;28;20384;-75
2022/09/06 07:18:46;;;;;;;8.68;6.47;;;;;;;18.45;78.03;101416.16;5043240;28;20037;-75
2022/09/06 07:21:16;;;;;;;8.38;6.50;;;;;;;18.48;76.66;101416.88;5041375;28;20021;-76
2022/09/06 07:23:42;;;;;;;8.13;6.28;;;;;;;18.54;76.31;101420.97;5048479;28;20033;-76
2022/09/06 07:26:16;;;;;;;7.50;5.80;;;;;;;18.58;75.69;101419.91;5046922;28;20071;-76
2022/09/06 07:28:41;;;;;;;6.65;5.95;;;;;;;18.64;76.20;101422.19;5041503;28;20025;-74
2022/09/06 07:31:07;;;;;;;6.43;5.50;;;;;;;18.71;76.12;101421.91;5040691;28;20045;-76
2022/09/06 07:33:35;;;;;;;28.50;7.45;;;;;;;18.76;75.72;101419.88;5044178;28;20464;-76
2022/09/06 07:36:02;;;;;;;7.95;5.63;;;;;;;18.83;76.70;101423.91;5046832;28;20025;-76
2022/09/06 07:38:28;;;;;;;9.50;5.95;;;;;;;18.89;76.38;101426.22;5047010;28;20033;-76
2022/09/06 07:40:59;;;;;;;9.07;5.88;;;;;;;18.93;74.95;101416.38;5046475;28;20106;-76
2022/09/06 07:43:25;;;;;;;8.35;5.78;;;;;;;19.00;75.15;101416.94;5043194;28;20029;-76
2022/09/06 07:46:20;;;;;;;7.88;5.47;;;;;;;19.08;75.13;101414.75;5044103;28;20032;-76
2022/09/06 07:48:46;;;;;;;9.55;5.57;;;;;;;19.13;74.08;101419.78;5022412;28;20399;-76
2022/09/06 07:51:19;;;;;;;9.05;6.15;;;;;;;19.19;74.14;101417.69;5041840;28;20529;-76
2022/09/06 07:53:50;;;;;;;6.95;5.63;;;;;;;19.24;74.18;101415.66;5043153;28;20116;-75
2022/09/06 07:56:16;;;;;;;7.70;5.72;;;;;;;19.31;73.45;101425.84;5043893;28;20079;-76
2022/09/06 07:58:41;;;;;;;8.68;5.72;;;;;;;19.37;73.45;101422.91;5040960;28;20468;-75
2022/09/06 08:01:15;;;;;;;8.65;5.63;;;;;;;19.45;73.59;101415.44;5042609;28;20064;-75
2022/09/06 08:03:41;;;;;;;7.25;5.53;;;;;;;19.52;72.34;101414.16;5043203;28;20036;-76
2022/09/06 08:06:06;;;;;;;6.63;4.68;;;;;;;19.61;72.15;101411.97;5035375;28;20442;-76
2022/09/06 08:08:31;;;;;;;7.15;5.18;;;;;;;19.66;71.47;101405.50;5036103;28;20032;-76
2022/09/06 08:10:57;;;;;;;7.45;4.85;;;;;;;19.72;70.37;101401.66;5037476;28;20017;-76
2022/09/06 08:13:22;;;;;;;6.07;4.53;;;;;;;19.79;71.42;101392.47;5038674;28;20508;-76
2022/09/06 08:15:47;;;;;;;6.95;4.57;;;;;;;19.86;70.39;101398.25;5034737;28;20121;-76
2022/09/06 08:18:13;;;;;;;6.20;4.80;;;;;;;19.94;70.67;101398.69;5035507;28;20048;-76
2022/09/06 08:20:38;;;;;;;8.68;5.30;;;;;;;20.02;70.33;101393.84;5036988;28;20617;-75
2022/09/06 08:23:09;;;;;;;6.35;4.75;;;;;;;20.12;71.09;101396.81;5034875;28;20029;-76
2022/09/06 08:25:35;;;;;;;;;;;;;;;20.21;70.69;101387.50;5034739;28;20040;-76
2022/09/06 08:28:00;;;;;;;4.97;3.97;;;;;;;20.30;69.34;101386.13;5037646;28;19978;-76
2022/09/06 08:30:26;;;;;;;6.05;4.13;;;;;;;20.40;69.17;101387.25;5036571;28;20291;-76
2022/09/06 08:32:51;;;;;;;4.45;3.67;;;;;;;20.54;67.64;101393.53;5037222;28;20025;-76
2022/09/06 08:35:17;;;;;;;5.45;3.90;;;;;;;20.66;66.87;101387.53;5037992;28;20827;-76
2022/09/06 08:37:42;;;;;;;5.20;3.45;;;;;;;20.77;66.18;101379.81;5038449;28;20036;-76
2022/09/06 08:40:07;;;;;;;5.10;3.83;;;;;;;20.88;65.38;101386.25;5037137;28;20455;-76
2022/09/06 08:42:38;;;;;;;4.57;3.75;;;;;;;20.97;65.54;101383.06;5037962;28;20040;-76
2022/09/06 08:45:08;;;;;;;7.22;3.40;;;;;;;21.07;65.70;101386.81;5043526;28;20025;-77
2022/09/06 08:47:34;;;;;;;9.35;3.33;;;;;;;21.16;62.86;101384.56;5028332;28;20067;-76
2022/09/06 08:50:05;;;;;;;4.32;2.90;;;;;;;21.23;64.63;101385.88;5040422;28;20480;-76
2022/09/06 08:52:55;;;;;;;3.53;2.78;;;;;;;21.26;63.48;101385.69;5047497;28;20119;-76
2022/09/06 08:55:32;;;;;;;4.07;3.03;;;;;;;21.33;64.03;101389.66;5047826;28;20137;-75
2022/09/06 08:58:18;;;;;;;4.57;2.95;;;;;;;21.39;62.36;101383.13;5043371;28;20116;-76
2022/09/06 09:00:57;;;;;;;4.15;2.92;;;;;;;21.47;63.75;101372.88;5042862;28;20028;-76
2022/09/06 09:03:32;;;;;;;3.97;2.95;;;;;;;21.55;63.16;101371.56;5040521;28;20108;-76
2022/09/06 09:05:58;;;;;;;5.38;3.28;;;;;;;21.57;61.47;101375.78;5039892;28;20115;-76
2022/09/06 09:08:43;;;;;;;5.65;2.90;;;;;;;21.61;63.66;101379.97;5046221;28;20078;-76
2022/09/06 09:11:20;;;;;;;4.63;2.80;;;;;;;21.67;62.33;101387.53;5046191;28;21199;-76
2022/09/06 09:13:58;;;;;;;8.10;3.10;;;;;;;21.72;61.76;101389.91;5041325;28;20025;-76
2022/09/06 09:16:23;;;;;;;3.13;2.42;;;;;;;21.76;62.05;101385.25;5039845;28;20040;-76
2022/09/06 09:18:52;;;;;;;4.50;2.33;;;;;;;21.80;60.83;101381.44;5039246;28;20491;-76
2022/09/06 09:21:21;;;;;;;4.82;2.60;;;;;;;21.87;61.27;101379.25;5039804;28;20457;-76
2022/09/06 09:23:55;;;;;;;3.63;2.33;;;;;;;21.91;61.31;101375.47;5041527;28;20186;-77
2022/09/06 09:26:23;;;;;;;2.80;1.70;;;;;;;21.94;59.57;101376.09;5039191;28;20112;-76
2022/09/06 09:29:09;;;;;;;4.00;2.08;;;;;;;22.01;61.37;101368.59;5040091;28;20028;-76
2022/09/06 09:31:48;;;;;;;4.28;1.98;;;;;;;22.10;61.44;101380.38;5039591;28;20169;-76
2022/09/06 09:34:36;;;;;;;2.45;1.70;;;;;;;22.14;60.26;101376.59;5040409;28;20147;-76
2022/09/06 09:37:19;;;;;;;3.90;1.67;;;;;;;22.17;60.24;101372.88;5032669;28;20045;-76
2022/09/06 09:39:46;;;;;;;2.05;1.63;;;;;;;22.23;59.95;101360.06;5042410;28;20036;-75
2022/09/06 09:42:22;;;;;;;4.60;1.95;;;;;;;22.31;60.14;101370.16;5041991;28;20036;-76
2022/09/06 09:44:47;;;;;;;3.38;1.83;;;;;;;22.37;58.59;101374.22;5040230;28;20039;-76
2022/09/06 09:47:27;;;;;;;4.10;1.85;;;;;;;22.40;59.30;101380.13;5036051;28;20432;-76
2022/09/06 09:49:54;;;;;;;3.00;1.98;;;;;;;22.43;58.13;101371.16;5036599;28;20033;-76
2022/09/06 09:52:30;;;;;;;2.78;1.70;;;;;;;22.48;58.88;101387.59;5040436;28;20068;-76
2022/09/06 09:55:00;;;;;;;3.47;1.60;;;;;;;22.51;58.13;101386.53;5036506;28;20029;-76
2022/09/06 09:57:28;;;;;;;3.85;1.90;;;;;;;22.55;58.33;101382.72;5037615;28;20033;-76
2022/09/06 09:59:57;;;;;;;3.42;1.80;;;;;;;22.61;58.04;101387.63;5042427;28;20472;-76
2022/09/06 10:02:34;;;;;;;2.60;1.73;;;;;;;22.66;57.42;101379.34;5034438;28;20103;-76
2022/09/06 10:05:19;;;;;;;3.85;1.90;;;;;;;22.75;58.80;101373.41;5038606;28;20706;-76
2022/09/06 10:07:51;;;;;;;3.25;1.80;;;;;;;22.78;59.13;101373.19;5039812;28;20021;-76
2022/09/06 10:10:19;;;;;;;3.47;1.75;;;;;;;22.85;58.83;101369.16;5041684;28;20115;-76
2022/09/06 10:12:44;;;;;;;2.78;1.95;;;;;;;22.92;58.13;101371.38;5038430;28;20059;-76
2022/09/06 10:15:30;;;;;;;3.72;1.77;;;;;;;22.97;58.04;101366.59;5039579;28;20451;-76
2022/09/06 10:17:55;;;;;;;5.15;1.83;;;;;;;22.99;57.90;101364.69;5039016;28;20029;-76
2022/09/06 10:20:29;;;;;;;4.70;2.20;;;;;;;23.02;58.32;101364.50;5037720;28;20026;-75
2022/09/06 10:23:01;;;;;;;2.92;1.95;;;;;;;23.04;57.25;101362.59;5037817;28;20144;-76
2022/09/06 10:25:46;;;;;;;3.92;1.92;;;;;;;23.08;57.98;101366.69;5037405;28;20037;-76
2022/09/06 10:28:14;;;;;;;2.38;1.92;;;;;;;23.13;57.22;101375.19;5040939;28;21237;-76
2022/09/06 10:31:07;;;;;;;2.08;1.60;;;;;;;23.22;58.10;101386.16;5035113;28;20040;-76
2022/09/06 10:33:51;;;;;;;2.17;1.70;;;;;;;23.27;56.89;101389.31;5035979;28;20076;-76
2022/09/06 10:36:24;;;;;;;2.92;1.70;;;;;;;23.32;54.90;101392.50;5037240;28;20119;-77
2022/09/06 10:38:55;;;;;;;5.53;1.83;;;;;;;23.36;55.63;101383.34;5038994;28;20036;-76
2022/09/06 10:41:38;;;;;;;4.82;1.77;;;;;;;23.42;56.69;101387.38;5038391;28;20028;-77
2022/09/06 10:44:21;;;;;;;2.17;1.63;;;;;;;23.46;56.16;101379.06;5041461;28;20032;-77
2022/09/06 10:46:51;;;;;;;6.00;1.92;;;;;;;23.52;56.16;101361.00;5040696;28;20041;-76
2022/09/06 10:49:18;;;;;;;3.47;1.88;;;;;;;23.57;55.46;101361.53;5039875;28;20035;-76
2022/09/06 10:51:52;;;;;;;2.97;2.00;;;;;;;23.62;56.24;101370.84;5035680;28;20036;-76
2022/09/06 10:54:22;;;;;;;5.20;1.90;;;;;;;23.64;55.25;101360.97;5039998;28;20040;-76
2022/09/06 10:57:07;;;;;;;4.25;2.03;;;;;;;23.68;56.66;101363.38;5038968;28;20036;-77
2022/09/06 10:59:38;;;;;;;5.13;2.20;;;;;;;23.71;55.79;101360.50;5038788;28;20055;-77
2022/09/06 11:02:49;;;;;;;4.43;2.00;;;;;;;23.76;55.94;101364.50;5039990;28;20029;-77
2022/09/06 11:05:23;;;;;;;5.30;2.10;;;;;;;23.82;54.92;101362.38;4962249;28;20512;-77
2022/09/06 11:08:00;;;;;;;2.95;2.10;;;;;;;23.86;55.23;101374.47;5027345;28;20537;-77
2022/09/06 11:10:36;;;;;;;4.07;1.83;;;;;;;23.89;55.47;101366.28;5039444;28;20036;-77
2022/09/06 11:13:07;;;;;;;5.72;2.00;;;;;;;23.95;55.13;101371.13;5038854;28;20040;-76
2022/09/06 11:15:46;;;;;;;6.45;2.40;;;;;;;23.99;56.06;101364.66;5039822;28;20503;-77
2022/09/06 11:18:22;;;;;;;4.05;2.28;;;;;;;24.02;54.92;101359.13;5037347;28;20148;-77
2022/09/06 11:21:26;;;;;;;4.57;2.22;;;;;;;24.04;55.32;101362.50;5037561;28;20033;-77
2022/09/06 11:23:55;;;;;;;3.60;2.20;;;;;;;24.06;55.82;101373.88;5034479;28;20037;-76
2022/09/06 11:26:33;;;;;;;4.45;2.67;;;;;;;24.09;55.64;101378.94;5040411;28;20047;-77
2022/09/06 11:29:06;;;;;;;3.72;2.30;;;;;;;24.06;53.90;101376.53;5041364;28;20048;-77
2022/09/06 11:31:34;;;;;;;5.38;2.10;;;;;;;24.04;54.80;101389.09;5038739;28;20052;-77
2022/09/06 11:34:04;;;;;;;3.65;2.13;;;;;;;24.04;54.13;101389.09;5039518;28;20116;-76
2022/09/06 11:36:46;;;;;;;4.32;2.33;;;;;;;24.05;54.79;101393.44;5039533;28;20043;-77